Time;durP1;ratioP1;P1;durP2;ratioP2;P2;SDS_P1;SDS_P2;PMS_P1;PMS_P2;Temp;Humidity;BMP_temperature;BMP_pressure;BME280_temperature;BME280_humidity;BME280_pressure;Samples;Min_cycle;Max_cycle;Signal;HPM_P1;HPM_P2
2021/05/04 00:00:58;;;;;;;5.00;3.03;;;;;;;;;;5009507;28;20439;-77
2021/05/04 00:03:26;;;;;;;2.83;2.50;;;;;;;;;;4993121;28;20452;-83
2021/05/04 00:05:53;;;;;;;3.30;2.90;;;;;;;;;;5008683;28;20458;-79
2021/05/04 00:08:20;;;;;;;3.00;2.70;;;;;;;;;;5012435;28;20486;-78
2021/05/04 00:10:47;;;;;;;5.80;3.00;;;;;;;;;;5012181;28;20459;-80
2021/05/04 00:13:13;;;;;;;3.00;2.70;;;;;;;;;;5013832;28;20462;-80
2021/05/04 00:15:40;;;;;;;3.27;2.97;;;;;;;;;;5014852;28;20443;-76
2021/05/04 00:18:07;;;;;;;2.60;2.40;;;;;;;;;;5014513;28;20865;-77
2021/05/04 00:20:35;;;;;;;5.40;3.40;;;;;;;;;;5012724;28;20485;-82
2021/05/04 00:23:02;;;;;;;5.87;3.70;;;;;;;;;;5007694;28;20462;-80
2021/05/04 00:25:29;;;;;;;3.53;3.17;;;;;;;;;;5011083;28;20501;-76
2021/05/04 00:27:55;;;;;;;5.80;3.20;;;;;;;;;;5011971;28;20463;-80
2021/05/04 00:30:22;;;;;;;4.93;3.30;;;;;;;;;;5012241;28;20438;-79
2021/05/04 00:32:50;;;;;;;3.13;2.83;;;;;;;;;;5011594;28;20442;-79
2021/05/04 00:35:17;;;;;;;3.27;2.40;;;;;;;;;;5012123;28;20442;-77
2021/05/04 00:37:44;;;;;;;4.37;2.70;;;;;;;;;;5006848;28;20477;-81
2021/05/04 00:40:12;;;;;;;4.13;2.80;;;;;;;;;;5010635;28;20478;-79
2021/05/04 00:42:39;;;;;;;4.33;3.33;;;;;;;;;;5012320;28;20451;-79
2021/05/04 00:45:07;;;;;;;3.50;2.60;;;;;;;;;;5011564;28;20446;-77
2021/05/04 00:47:34;;;;;;;5.67;2.93;;;;;;;;;;5010771;28;20470;-79
2021/05/04 00:50:00;;;;;;;4.60;3.37;;;;;;;;;;5008463;28;20455;-79
2021/05/04 00:52:28;;;;;;;4.30;3.03;;;;;;;;;;5009354;28;20458;-78
2021/05/04 00:54:57;;;;;;;3.20;2.70;;;;;;;;;;5012376;28;20451;-78
2021/05/04 00:57:24;;;;;;;7.23;2.83;;;;;;;;;;5010918;28;20446;-81
2021/05/04 00:59:52;;;;;;;3.43;2.57;;;;;;;;;;5010656;28;20483;-77
2021/05/04 01:02:19;;;;;;;3.73;3.03;;;;;;;;;;5012710;28;20959;-76
2021/05/04 01:04:46;;;;;;;3.00;2.57;;;;;;;;;;5009189;28;20442;-78
2021/05/04 01:07:13;;;;;;;5.53;2.50;;;;;;;;;;5008242;28;20431;-78
2021/05/04 01:09:40;;;;;;;4.13;2.57;;;;;;;;;;5010162;28;20983;-79
2021/05/04 01:12:08;;;;;;;3.63;2.53;;;;;;;;;;5011141;28;20463;-77
2021/05/04 01:14:35;;;;;;;4.57;2.90;;;;;;;;;;5011884;28;20445;-78
2021/05/04 01:17:02;;;;;;;4.30;2.87;;;;;;;;;;5011148;28;20451;-81
2021/05/04 01:19:29;;;;;;;4.27;2.97;;;;;;;;;;5007270;28;20589;-80
2021/05/04 01:21:57;;;;;;;2.90;2.60;;;;;;;;;;5009415;28;20442;-79
2021/05/04 01:24:24;;;;;;;3.30;2.43;;;;;;;;;;5010993;28;20439;-79
2021/05/04 01:26:51;;;;;;;5.53;2.67;;;;;;;;;;5010680;28;20443;-78
2021/05/04 01:29:18;;;;;;;3.70;2.70;;;;;;;;;;5010956;28;20459;-77
2021/05/04 01:31:44;;;;;;;5.70;2.97;;;;;;;;;;5011131;28;20949;-77
2021/05/04 01:34:12;;;;;;;3.83;2.90;;;;;;;;;;5007228;28;20465;-81
2021/05/04 01:36:39;;;;;;;4.40;2.77;;;;;;;;;;5009238;28;20501;-81
2021/05/04 01:39:07;;;;;;;7.37;2.77;;;;;;;;;;5011254;28;21307;-77
2021/05/04 01:41:34;;;;;;;4.87;2.50;;;;;;;;;;5009642;28;20459;-80
2021/05/04 01:44:01;;;;;;;2.97;2.57;;;;;;;;;;4993797;28;20435;-79
2021/05/04 01:46:31;;;;;;;3.20;2.10;;;;;;;;;;5012328;28;20538;-77
2021/05/04 01:48:58;;;;;;;3.73;3.30;;;;;;;;;;5012511;28;20463;-78
2021/05/04 01:51:26;;;;;;;2.47;2.10;;;;;;;;;;5012027;28;20857;-79
2021/05/04 01:53:53;;;;;;;3.10;1.80;;;;;;;;;;5013360;28;20447;-78
2021/05/04 01:56:21;;;;;;;2.50;2.30;;;;;;;;;;5008630;28;20792;-79
2021/05/04 01:58:48;;;;;;;4.30;1.87;;;;;;;;;;5007850;28;20853;-76
2021/05/04 02:01:15;;;;;;;3.37;2.13;;;;;;;;;;5010274;28;20486;-79
2021/05/04 02:03:42;;;;;;;2.20;2.00;;;;;;;;;;5009749;28;20830;-79
2021/05/04 02:06:09;;;;;;;2.03;1.77;;;;;;;;;;5011178;28;20446;-77
2021/05/04 02:08:35;;;;;;;2.20;2.00;;;;;;;;;;5010960;28;20470;-77
2021/05/04 02:11:04;;;;;;;1.90;1.50;;;;;;;;;;5012420;28;20501;-82
2021/05/04 02:13:32;;;;;;;1.90;1.70;;;;;;;;;;5011700;28;20442;-80
2021/05/04 02:15:58;;;;;;;4.17;2.00;;;;;;;;;;5011847;28;20456;-79
2021/05/04 02:18:25;;;;;;;5.50;1.87;;;;;;;;;;5009639;28;20462;-78
2021/05/04 02:20:52;;;;;;;5.60;2.50;;;;;;;;;;5006613;28;20486;-79
2021/05/04 02:23:19;;;;;;;5.13;1.80;;;;;;;;;;5010058;28;21155;-80
2021/05/04 02:25:46;;;;;;;5.10;2.40;;;;;;;;;;5009354;28;20465;-79
2021/05/04 02:28:13;;;;;;;11.03;2.13;;;;;;;;;;5010376;28;20972;-81
2021/05/04 02:30:41;;;;;;;11.03;2.60;;;;;;;;;;5010342;28;20463;-82
2021/05/04 02:33:08;;;;;;;6.83;2.23;;;;;;;;;;5012293;28;20439;-77
2021/05/04 02:35:34;;;;;;;4.10;2.13;;;;;;;;;;5012329;28;20438;-82
2021/05/04 02:38:01;;;;;;;5.43;1.83;;;;;;;;;;5012059;28;20462;-78
2021/05/04 02:40:28;;;;;;;4.43;2.43;;;;;;;;;;5009689;28;20487;-78
2021/05/04 02:42:55;;;;;;;2.60;1.50;;;;;;;;;;5006538;28;20450;-77
2021/05/04 02:45:22;;;;;;;9.90;2.27;;;;;;;;;;5008734;28;20964;-79
2021/05/04 02:47:49;;;;;;;3.73;2.50;;;;;;;;;;5010113;28;20516;-77
2021/05/04 02:50:16;;;;;;;5.53;2.30;;;;;;;;;;5010061;28;20442;-81
2021/05/04 02:52:43;;;;;;;6.53;2.13;;;;;;;;;;5010011;28;20443;-79
2021/05/04 02:55:10;;;;;;;5.03;2.17;;;;;;;;;;5011060;28;20450;-80
2021/05/04 02:57:37;;;;;;;4.40;2.20;;;;;;;;;;4994335;28;20467;-78
2021/05/04 03:00:04;;;;;;;4.03;2.20;;;;;;;;;;5010961;28;20497;-79
2021/05/04 03:02:31;;;;;;;4.27;1.60;;;;;;;;;;5011909;28;20446;-78
2021/05/04 03:04:59;;;;;;;2.90;1.90;;;;;;;;;;5005981;28;20439;-78
2021/05/04 03:07:26;;;;;;;3.80;2.30;;;;;;;;;;5007181;28;20451;-77
2021/05/04 03:09:53;;;;;;;9.27;2.40;;;;;;;;;;5009663;28;20463;-76
2021/05/04 03:12:19;;;;;;;3.13;2.00;;;;;;;;;;5008838;28;20470;-78
2021/05/04 03:14:46;;;;;;;2.80;2.03;;;;;;;;;;5009703;28;20447;-77
2021/05/04 03:17:13;;;;;;;3.10;1.70;;;;;;;;;;5010635;28;20466;-80
2021/05/04 03:19:40;;;;;;;2.70;1.70;;;;;;;;;;5011489;28;20887;-78
2021/05/04 03:22:08;;;;;;;4.10;2.10;;;;;;;;;;5011550;28;20446;-79
2021/05/04 03:24:34;;;;;;;2.97;2.20;;;;;;;;;;5011639;28;20866;-77
2021/05/04 03:27:01;;;;;;;3.67;1.97;;;;;;;;;;5006267;28;20452;-78
2021/05/04 03:29:27;;;;;;;3.17;2.47;;;;;;;;;;5006486;28;20794;-79
2021/05/04 03:31:54;;;;;;;4.50;2.33;;;;;;;;;;5009586;28;20457;-80
2021/05/04 03:34:21;;;;;;;5.40;2.00;;;;;;;;;;5009544;28;20492;-76
2021/05/04 03:36:48;;;;;;;2.93;1.90;;;;;;;;;;5012319;28;20497;-80
2021/05/04 03:39:16;;;;;;;2.30;2.03;;;;;;;;;;4994890;28;20502;-79
2021/05/04 03:41:42;;;;;;;4.13;1.80;;;;;;;;;;5010645;28;20493;-75
2021/05/04 03:44:09;;;;;;;2.37;1.80;;;;;;;;;;5011285;28;20466;-78
2021/05/04 03:46:39;;;;;;;1.80;1.70;;;;;;;;;;5011544;28;20480;-82
2021/05/04 03:49:06;;;;;;;2.40;1.70;;;;;;;;;;4990500;28;20462;-78
2021/05/04 03:51:33;;;;;;;2.70;1.70;;;;;;;;;;5005789;28;20465;-80
2021/05/04 03:54:00;;;;;;;2.30;1.70;;;;;;;;;;5009085;28;20454;-81
2021/05/04 03:56:27;;;;;;;3.27;1.50;;;;;;;;;;5009770;28;20529;-78
2021/05/04 03:58:54;;;;;;;3.40;1.90;;;;;;;;;;5007914;28;21010;-82
2021/05/04 04:01:22;;;;;;;2.20;1.80;;;;;;;;;;5009280;28;20478;-78
2021/05/04 04:03:49;;;;;;;3.00;1.80;;;;;;;;;;5011327;28;20447;-81
2021/05/04 04:06:15;;;;;;;5.53;1.83;;;;;;;;;;5011446;28;20442;-76
2021/05/04 04:08:43;;;;;;;2.87;1.83;;;;;;;;;;5011025;28;20482;-77
2021/05/04 04:11:09;;;;;;;2.37;1.80;;;;;;;;;;5010051;28;20877;-80
2021/05/04 04:13:37;;;;;;;4.60;1.70;;;;;;;;;;5007971;28;20459;-78
2021/05/04 04:16:04;;;;;;;3.00;1.57;;;;;;;;;;5010794;28;20466;-79
2021/05/04 04:18:31;;;;;;;2.07;1.93;;;;;;;;;;5012839;28;20469;-78
2021/05/04 04:20:58;;;;;;;2.97;2.00;;;;;;;;;;5012332;28;20872;-78
2021/05/04 04:23:24;;;;;;;2.87;2.33;;;;;;;;;;5011417;28;20538;-80
2021/05/04 04:25:52;;;;;;;2.80;1.60;;;;;;;;;;5009281;28;20451;-79
2021/05/04 04:28:19;;;;;;;5.47;2.60;;;;;;;;;;5009476;28;20465;-78
2021/05/04 04:30:46;;;;;;;1.90;1.70;;;;;;;;;;5012313;28;20443;-79
2021/05/04 04:33:13;;;;;;;3.93;1.63;;;;;;;;;;5012534;28;20446;-79
2021/05/04 04:35:40;;;;;;;1.77;1.67;;;;;;;;;;5011442;28;20473;-78
2021/05/04 04:38:07;;;;;;;3.20;1.83;;;;;;;;;;5012974;28;20478;-78
2021/05/04 04:40:33;;;;;;;3.27;1.67;;;;;;;;;;5014371;28;20497;-81
2021/05/04 04:43:00;;;;;;;2.17;1.90;;;;;;;;;;5013116;28;20469;-80
2021/05/04 04:45:27;;;;;;;3.40;1.87;;;;;;;;;;5013847;28;20449;-78
2021/05/04 04:47:55;;;;;;;2.83;1.90;;;;;;;;;;5011248;28;20462;-80
2021/05/04 04:50:22;;;;;;;1.40;1.30;;;;;;;;;;5008265;28;20450;-81
2021/05/04 04:52:48;;;;;;;2.33;1.83;;;;;;;;;;5010095;28;20473;-79
2021/05/04 04:55:15;;;;;;;2.07;1.87;;;;;;;;;;5012059;28;20648;-80
2021/05/04 04:57:42;;;;;;;2.60;1.87;;;;;;;;;;5011765;28;20476;-82
2021/05/04 05:00:09;;;;;;;2.27;1.50;;;;;;;;;;5011806;28;20485;-82
2021/05/04 05:02:36;;;;;;;1.77;1.67;;;;;;;;;;5013996;28;20504;-80
2021/05/04 05:05:04;;;;;;;2.57;1.80;;;;;;;;;;5012671;28;20863;-81
2021/05/04 05:07:31;;;;;;;1.77;1.50;;;;;;;;;;5013445;28;20481;-79
2021/05/04 05:09:58;;;;;;;1.93;1.73;;;;;;;;;;4992702;28;20439;-82
2021/05/04 05:12:25;;;;;;;2.20;1.80;;;;;;;;;;4988588;28;20470;-82
2021/05/04 05:14:53;;;;;;;3.27;1.67;;;;;;;;;;4991380;28;20459;-81
2021/05/04 05:17:21;;;;;;;2.13;1.50;;;;;;;;;;4992472;28;20550;-77
2021/05/04 05:19:47;;;;;;;1.80;1.67;;;;;;;;;;4992039;28;20487;-77
2021/05/04 05:22:15;;;;;;;2.07;1.93;;;;;;;;;;4991965;28;20454;-81
2021/05/04 05:24:42;;;;;;;3.60;1.90;;;;;;;;;;4990073;28;20475;-81
2021/05/04 05:27:09;;;;;;;3.00;1.90;;;;;;;;;;4987428;28;20460;-80
2021/05/04 05:29:36;;;;;;;2.07;1.50;;;;;;;;;;4990249;28;20498;-81
2021/05/04 05:32:03;;;;;;;1.73;1.60;;;;;;;;;;4992014;28;20440;-78
2021/05/04 05:34:30;;;;;;;2.60;1.70;;;;;;;;;;4990606;28;20533;-79
2021/05/04 05:36:57;;;;;;;2.40;1.23;;;;;;;;;;4990202;28;20459;-77
2021/05/04 05:39:25;;;;;;;1.57;1.40;;;;;;;;;;4993382;28;20495;-78
2021/05/04 05:41:52;;;;;;;1.60;1.50;;;;;;;;;;4993908;28;20547;-78
2021/05/04 05:44:19;;;;;;;2.30;1.60;;;;;;;;;;4993729;28;20796;-80
2021/05/04 05:46:46;;;;;;;1.67;1.40;;;;;;;;;;4993669;28;20452;-82
2021/05/04 05:49:13;;;;;;;3.70;1.50;;;;;;;;;;4988804;28;20502;-79
2021/05/04 05:51:40;;;;;;;1.70;1.47;;;;;;;;;;4986628;28;20793;-78
2021/05/04 05:54:07;;;;;;;4.33;1.70;;;;;;;;;;4990895;28;20460;-81
2021/05/04 05:56:35;;;;;;;2.53;1.60;;;;;;;;;;4992890;28;20447;-78
2021/05/04 05:59:03;;;;;;;1.87;1.67;;;;;;;;;;4991486;28;20906;-78
2021/05/04 06:01:30;;;;;;;3.50;1.67;;;;;;;;;;4991133;28;20447;-80
2021/05/04 06:03:57;;;;;;;1.63;1.47;;;;;;;;;;4993989;28;20855;-82
2021/05/04 06:06:23;;;;;;;2.50;1.40;;;;;;;;;;4992435;28;21012;-79
2021/05/04 06:08:50;;;;;;;3.03;1.60;;;;;;;;;;4985342;28;20475;-79
2021/05/04 06:11:17;;;;;;;1.77;1.30;;;;;;;;;;4997187;28;20439;-81
2021/05/04 06:13:45;;;;;;;2.00;1.70;;;;;;;;;;5005482;28;20790;-80
2021/05/04 06:16:12;;;;;;;1.80;1.60;;;;;;;;;;5009234;28;20447;-79
2021/05/04 06:18:39;;;;;;;2.20;1.30;;;;;;;;;;5009856;28;20812;-77
2021/05/04 06:21:06;;;;;;;2.53;2.30;;;;;;;;;;5008672;28;20541;-77
2021/05/04 06:23:32;;;;;;;1.60;1.50;;;;;;;;;;5010935;28;20443;-78
2021/05/04 06:26:00;;;;;;;2.27;1.40;;;;;;;;;;5010657;28;20466;-79
2021/05/04 06:28:27;;;;;;;2.00;1.63;;;;;;;;;;5011828;28;20569;-78
2021/05/04 06:30:55;;;;;;;2.07;1.30;;;;;;;;;;5011794;28;20501;-77
2021/05/04 06:33:22;;;;;;;1.83;1.27;;;;;;;;;;5012061;28;20465;-78
2021/05/04 06:35:49;;;;;;;3.43;1.77;;;;;;;;;;5006825;28;20435;-79
2021/05/04 06:38:18;;;;;;;2.27;1.57;;;;;;;;;;5007414;28;20541;-77
2021/05/04 06:40:46;;;;;;;4.73;2.10;;;;;;;;;;5009939;28;20501;-80
2021/05/04 06:43:13;;;;;;;2.87;1.50;;;;;;;;;;5009251;28;21483;-82
2021/05/04 06:45:40;;;;;;;1.70;1.60;;;;;;;;;;5009493;28;20956;-79
2021/05/04 06:48:08;;;;;;;1.60;1.33;;;;;;;;;;5010659;28;20506;-79
2021/05/04 06:50:35;;;;;;;2.20;1.40;;;;;;;;;;5012436;28;20474;-77
2021/05/04 06:53:02;;;;;;;2.00;1.70;;;;;;;;;;5011230;28;20749;-80
2021/05/04 06:55:28;;;;;;;4.70;1.90;;;;;;;;;;5010819;28;20462;-79
2021/05/04 06:57:55;;;;;;;1.57;1.47;;;;;;;;;;5008314;28;21134;-78
2021/05/04 07:00:22;;;;;;;1.47;1.37;;;;;;;;;;5006586;28;20498;-79
2021/05/04 07:02:49;;;;;;;1.60;1.50;;;;;;;;;;5008788;28;20522;-80
2021/05/04 07:05:17;;;;;;;1.83;1.30;;;;;;;;;;5009772;28;20446;-81
2021/05/04 07:07:44;;;;;;;1.73;1.20;;;;;;;;;;5009371;28;20471;-83
2021/05/04 07:10:11;;;;;;;2.07;1.20;;;;;;;;;;5010684;28;20461;-78
2021/05/04 07:12:38;;;;;;;1.70;1.50;;;;;;;;;;4994772;28;20861;-78
2021/05/04 07:15:05;;;;;;;1.83;1.40;;;;;;;;;;5011512;28;20505;-78
2021/05/04 07:17:32;;;;;;;9.63;1.60;;;;;;;;;;5011560;28;20470;-81
2021/05/04 07:19:58;;;;;;;1.83;1.20;;;;;;;;;;5008795;28;20486;-77
2021/05/04 07:22:28;;;;;;;1.43;1.33;;;;;;;;;;5005444;28;20471;-78
2021/05/04 07:24:55;;;;;;;1.20;1.10;;;;;;;;;;5008918;28;20522;-82
2021/05/04 07:27:22;;;;;;;1.43;1.30;;;;;;;;;;5009154;28;20453;-79
2021/05/04 07:29:49;;;;;;;3.00;1.53;;;;;;;;;;5009001;28;20497;-79
2021/05/04 07:32:17;;;;;;;1.83;1.47;;;;;;;;;;5009751;28;20465;-81
2021/05/04 07:34:44;;;;;;;3.10;1.43;;;;;;;;;;5011617;28;20443;-81
2021/05/04 07:37:11;;;;;;;1.33;1.23;;;;;;;;;;5011572;28;20458;-80
2021/05/04 07:39:39;;;;;;;3.10;1.30;;;;;;;;;;5011469;28;20552;-78
2021/05/04 07:42:06;;;;;;;1.50;1.40;;;;;;;;;;5008642;28;20436;-77
2021/05/04 07:44:33;;;;;;;1.30;1.20;;;;;;;;;;5005462;28;20531;-80
2021/05/04 07:47:00;;;;;;;4.07;2.10;;;;;;;;;;4992768;28;20435;-81
2021/05/04 07:49:33;;;;;;;1.97;1.30;;;;;;;;;;5013075;28;20467;-80
2021/05/04 07:52:00;;;;;;;3.63;2.33;;;;;;;;;;5013239;28;20453;-78
2021/05/04 07:54:27;;;;;;;2.67;1.20;;;;;;;;;;5013432;28;20545;-79
2021/05/04 07:56:55;;;;;;;2.50;1.47;;;;;;;;;;5015240;28;20464;-79
2021/05/04 07:59:22;;;;;;;2.07;1.70;;;;;;;;;;5015297;28;20537;-79
2021/05/04 08:01:48;;;;;;;2.03;1.50;;;;;;;;;;5015129;28;20470;-84
2021/05/04 08:04:15;;;;;;;2.13;1.30;;;;;;;;;;5012636;28;20504;-78
2021/05/04 08:06:42;;;;;;;1.73;1.47;;;;;;;;;;5009408;28;20447;-78
2021/05/04 08:09:08;;;;;;;2.23;1.30;;;;;;;;;;5011629;28;20479;-81
2021/05/04 08:11:36;;;;;;;2.00;1.40;;;;;;;;;;5012547;28;20443;-84
2021/05/04 08:14:04;;;;;;;1.50;1.40;;;;;;;;;;5012959;28;20533;-81
2021/05/04 08:16:32;;;;;;;6.90;1.87;;;;;;;;;;5012540;28;20446;-79
2021/05/04 08:18:59;;;;;;;2.07;1.40;;;;;;;;;;5014762;28;20458;-78
2021/05/04 08:21:31;;;;;;;1.30;1.20;;;;;;;;;;5012500;28;20487;-79
2021/05/04 08:23:58;;;;;;;1.80;1.70;;;;;;;;;;5009316;28;20440;-77
2021/05/04 08:26:25;;;;;;;1.90;1.60;;;;;;;;;;5011311;28;20513;-81
2021/05/04 08:28:52;;;;;;;1.73;1.47;;;;;;;;;;5012035;28;20823;-79
2021/05/04 08:31:20;;;;;;;1.60;1.43;;;;;;;;;;5012152;28;20932;-81
2021/05/04 08:33:47;;;;;;;2.60;1.67;;;;;;;;;;5012265;28;20940;-80
2021/05/04 08:36:14;;;;;;;3.17;1.80;;;;;;;;;;5014577;28;20446;-79
2021/05/04 08:38:40;;;;;;;1.90;1.57;;;;;;;;;;5011250;28;20474;-77
2021/05/04 08:41:08;;;;;;;3.63;2.00;;;;;;;;;;5008714;28;20513;-80
2021/05/04 08:43:35;;;;;;;2.00;1.80;;;;;;;;;;5011379;28;20496;-77
2021/05/04 08:46:03;;;;;;;2.67;1.50;;;;;;;;;;5011335;28;20497;-79
2021/05/04 08:48:31;;;;;;;1.63;1.33;;;;;;;;;;4994518;28;20463;-82
2021/05/04 08:50:59;;;;;;;2.43;2.17;;;;;;;;;;5011728;28;20855;-81
2021/05/04 08:53:26;;;;;;;1.70;1.60;;;;;;;;;;5009024;28;20442;-78
2021/05/04 08:55:53;;;;;;;2.73;1.60;;;;;;;;;;4991252;28;20455;-79
2021/05/04 08:58:21;;;;;;;1.80;1.60;;;;;;;;;;5009830;28;20558;-76
2021/05/04 09:00:48;;;;;;;2.00;1.60;;;;;;;;;;5011455;28;20490;-78
2021/05/04 09:03:33;;;;;;;2.00;1.60;;;;;;;;;;5011396;28;20954;-79
2021/05/04 09:06:04;;;;;;;1.60;1.40;;;;;;;;;;4951582;29;20566;-77
2021/05/04 09:08:37;;;;;;;2.17;1.70;;;;;;;;;;4946441;28;20474;-79
2021/05/04 09:11:22;;;;;;;1.67;1.50;;;;;;;;;;4948143;29;21054;-79
2021/05/04 09:13:53;;;;;;;2.53;2.10;;;;;;;;;;4936318;29;20452;-78
2021/05/04 09:16:32;;;;;;;2.17;1.73;;;;;;;;;;4950352;29;20954;-80
2021/05/04 09:19:10;;;;;;;2.47;1.90;;;;;;;;;;4949863;28;20529;-80
2021/05/04 09:21:38;;;;;;;2.93;1.70;;;;;;;;;;4937677;29;20482;-77
2021/05/04 09:24:20;;;;;;;5.40;2.10;;;;;;;;;;4949986;29;20446;-77
2021/05/04 09:26:47;;;;;;;1.60;1.50;;;;;;;;;;4948804;29;20509;-77
2021/05/04 09:29:14;;;;;;;3.40;2.00;;;;;;;;;;4934997;29;20469;-79
2021/05/04 09:31:42;;;;;;;3.60;1.70;;;;;;;;;;4934343;29;20450;-80
2021/05/04 09:34:10;;;;;;;1.97;1.43;;;;;;;;;;4934552;29;20450;-78
2021/05/04 09:36:41;;;;;;;2.83;1.80;;;;;;;;;;4964130;28;20460;-80
2021/05/04 09:39:07;;;;;;;5.67;2.10;;;;;;;;;;4972644;28;20456;-78
2021/05/04 09:41:34;;;;;;;4.47;1.53;;;;;;;;;;4974412;28;20480;-80
2021/05/04 09:44:01;;;;;;;2.23;1.67;;;;;;;;;;4991362;28;20642;-80
2021/05/04 09:46:43;;;;;;;2.80;1.40;;;;;;;;;;4991286;28;20740;-79
2021/05/04 09:49:24;;;;;;;4.50;1.43;;;;;;;;;;4976775;28;21047;-79
2021/05/04 09:51:53;;;;;;;2.17;1.27;;;;;;;;;;4993020;28;20447;-80
2021/05/04 09:54:27;;;;;;;2.37;1.40;;;;;;;;;;4989658;28;20440;-79
2021/05/04 09:56:55;;;;;;;2.57;1.60;;;;;;;;;;4987995;28;20929;-78
2021/05/04 09:59:23;;;;;;;1.60;1.50;;;;;;;;;;4983722;28;20566;-78
2021/05/04 10:01:50;;;;;;;3.60;1.87;;;;;;;;;;4988805;28;20568;-79
2021/05/04 10:04:18;;;;;;;1.40;1.30;;;;;;;;;;4991315;28;20440;-79
2021/05/04 10:06:45;;;;;;;2.83;1.53;;;;;;;;;;4991419;28;21133;-82
2021/05/04 10:09:15;;;;;;;3.63;1.60;;;;;;;;;;5001412;28;20529;-79
2021/05/04 10:11:43;;;;;;;2.77;1.63;;;;;;;;;;5007766;28;20611;-79
2021/05/04 10:14:13;;;;;;;2.10;1.40;;;;;;;;;;5009055;28;20458;-77
2021/05/04 10:16:40;;;;;;;2.30;1.40;;;;;;;;;;5009835;28;20442;-79
2021/05/04 10:19:07;;;;;;;1.47;1.37;;;;;;;;;;5010304;28;20467;-77
2021/05/04 10:21:33;;;;;;;4.13;1.70;;;;;;;;;;5010607;28;20486;-78
2021/05/04 10:24:00;;;;;;;2.37;1.77;;;;;;;;;;5007570;28;20530;-79
2021/05/04 10:26:29;;;;;;;4.70;1.70;;;;;;;;;;5006970;28;20844;-82
2021/05/04 10:28:57;;;;;;;1.80;1.70;;;;;;;;;;5009638;28;20462;-80
2021/05/04 10:31:33;;;;;;;4.47;1.90;;;;;;;;;;5009873;28;20828;-85
2021/05/04 10:34:26;;;;;;;4.17;1.63;;;;;;;;;;5010224;28;20967;-80
2021/05/04 10:36:52;;;;;;;6.23;1.93;;;;;;;;;;4990899;28;20453;-77
2021/05/04 10:39:33;;;;;;;4.03;2.00;;;;;;;;;;4988917;28;20900;-80
2021/05/04 10:42:01;;;;;;;3.80;1.90;;;;;;;;;;5010821;28;20457;-79
2021/05/04 10:44:28;;;;;;;2.13;1.50;;;;;;;;;;5009763;28;20509;-78
2021/05/04 10:46:57;;;;;;;3.10;1.70;;;;;;;;;;5009833;28;20501;-79
2021/05/04 10:49:38;;;;;;;5.03;2.10;;;;;;;;;;5010588;28;21010;-77
2021/05/04 10:52:05;;;;;;;7.57;2.03;;;;;;;;;;4996967;28;20443;-81
2021/05/04 10:54:52;;;;;;;5.07;2.10;;;;;;;;;;5012008;28;20443;-77
2021/05/04 10:57:20;;;;;;;4.87;1.93;;;;;;;;;;4997717;28;20442;-82
2021/05/04 10:59:49;;;;;;;6.30;2.47;;;;;;;;;;5006763;28;20479;-77
2021/05/04 11:02:33;;;;;;;6.37;2.30;;;;;;;;;;5006809;28;20803;-79
2021/05/04 11:05:00;;;;;;;2.83;1.70;;;;;;;;;;4995112;28;20446;-76
2021/05/04 11:07:41;;;;;;;4.93;1.97;;;;;;;;;;5009572;28;20772;-77
2021/05/04 11:10:11;;;;;;;5.20;2.30;;;;;;;;;;5008959;28;20443;-80
2021/05/04 11:12:39;;;;;;;5.30;2.13;;;;;;;;;;5011127;28;20463;-81
2021/05/04 11:15:21;;;;;;;9.93;2.47;;;;;;;;;;5011750;28;20439;-77
2021/05/04 11:17:47;;;;;;;6.03;2.60;;;;;;;;;;4996702;28;20831;-80
2021/05/04 11:20:29;;;;;;;6.13;1.97;;;;;;;;;;5010420;28;20991;-77
2021/05/04 11:22:56;;;;;;;5.80;2.17;;;;;;;;;;5004533;28;20458;-80
2021/05/04 11:25:37;;;;;;;5.40;2.40;;;;;;;;;;5008136;28;20817;-80
2021/05/04 11:28:05;;;;;;;15.53;3.10;;;;;;;;;;4994289;28;20556;-79
2021/05/04 11:30:34;;;;;;;5.33;2.37;;;;;;;;;;4992158;28;20538;-81
2021/05/04 11:33:01;;;;;;;8.63;3.30;;;;;;;;;;4992087;28;20920;-77
2021/05/04 11:35:36;;;;;;;9.27;2.37;;;;;;;;;;5011440;28;20442;-80
2021/05/04 11:38:04;;;;;;;5.43;2.27;;;;;;;;;;5011516;28;21068;-80
2021/05/04 11:40:31;;;;;;;9.20;2.67;;;;;;;;;;5011535;28;20463;-82
2021/05/04 11:42:59;;;;;;;8.27;2.87;;;;;;;;;;5009300;28;20443;-78
2021/05/04 11:45:29;;;;;;;8.73;2.83;;;;;;;;;;5005927;28;20428;-78
2021/05/04 11:47:56;;;;;;;5.70;2.20;;;;;;;;;;5008362;28;20554;-78
2021/05/04 11:50:24;;;;;;;8.87;3.00;;;;;;;;;;4991726;28;20923;-78
2021/05/04 11:52:52;;;;;;;11.40;2.73;;;;;;;;;;5009392;28;20446;-80
2021/05/04 11:55:20;;;;;;;6.60;2.33;;;;;;;;;;5009350;28;20437;-81
2021/05/04 11:57:48;;;;;;;6.67;2.30;;;;;;;;;;4994050;28;20562;-80
2021/05/04 12:00:17;;;;;;;6.20;2.40;;;;;;;;;;5011632;28;20490;-80
2021/05/04 12:02:46;;;;;;;12.23;3.03;;;;;;;;;;5010854;28;20447;-80
2021/05/04 12:05:14;;;;;;;5.30;2.20;;;;;;;;;;5008685;28;20443;-81
2021/05/04 12:07:43;;;;;;;5.90;2.83;;;;;;;;;;4986893;28;20557;-80
2021/05/04 12:10:25;;;;;;;11.53;2.10;;;;;;;;;;4990648;28;20418;-78
2021/05/04 12:12:52;;;;;;;5.20;2.20;;;;;;;;;;4993516;28;20621;-79
2021/05/04 12:15:20;;;;;;;5.53;2.23;;;;;;;;;;5008843;28;20417;-78
2021/05/04 12:17:56;;;;;;;4.90;1.97;;;;;;;;;;5009663;28;20485;-82
2021/05/04 12:20:24;;;;;;;5.40;2.40;;;;;;;;;;4993765;28;20876;-82
2021/05/04 12:22:51;;;;;;;6.83;2.50;;;;;;;;;;5011151;28;20505;-79
2021/05/04 12:25:21;;;;;;;5.20;2.13;;;;;;;;;;5010987;28;20435;-78
2021/05/04 12:27:48;;;;;;;6.90;2.90;;;;;;;;;;4990257;28;20489;-82
2021/05/04 12:30:19;;;;;;;7.97;2.73;;;;;;;;;;5005685;28;20414;-81
2021/05/04 12:32:47;;;;;;;18.30;3.50;;;;;;;;;;5009452;28;20485;-78
2021/05/04 12:35:18;;;;;;;8.50;2.33;;;;;;;;;;5012904;28;20428;-81
2021/05/04 12:37:47;;;;;;;7.77;2.40;;;;;;;;;;4995183;28;20438;-82
2021/05/04 12:40:15;;;;;;;6.03;2.37;;;;;;;;;;5012740;28;20498;-80
2021/05/04 12:42:43;;;;;;;8.63;2.37;;;;;;;;;;4997197;28;20427;-79
2021/05/04 12:45:10;;;;;;;6.00;2.33;;;;;;;;;;5013976;28;20439;-78
2021/05/04 12:47:48;;;;;;;8.47;2.77;;;;;;;;;;5013954;28;20474;-79
2021/05/04 12:50:27;;;;;;;7.27;2.57;;;;;;;;;;5010255;28;20443;-79
2021/05/04 12:52:54;;;;;;;4.93;2.30;;;;;;;;;;5009067;28;20443;-79
2021/05/04 12:55:21;;;;;;;8.33;2.30;;;;;;;;;;5011101;28;20768;-79
2021/05/04 12:57:48;;;;;;;14.00;2.97;;;;;;;;;;5011370;28;20976;-80
2021/05/04 13:00:15;;;;;;;5.70;1.90;;;;;;;;;;5011749;28;20498;-79
2021/05/04 13:02:42;;;;;;;5.47;2.33;;;;;;;;;;5012374;28;20447;-78
2021/05/04 13:05:19;;;;;;;10.27;2.47;;;;;;;;;;5013579;28;20482;-79
2021/05/04 13:07:58;;;;;;;4.60;2.50;;;;;;;;;;4996448;28;20446;-79
2021/05/04 13:10:31;;;;;;;5.83;2.17;;;;;;;;;;5013829;28;20434;-78
2021/05/04 13:13:13;;;;;;;6.10;2.17;;;;;;;;;;5008299;28;20443;-80
2021/05/04 13:32:05;;;;;;;41.13;6.03;;;;;;;;;;4996205;28;20425;-80
2021/05/04 13:34:40;;;;;;;36.97;5.33;;;;;;;;;;5008432;28;20417;-79
2021/05/04 13:37:10;;;;;;;29.90;5.80;;;;;;;;;;5007893;28;20757;-79
2021/05/04 13:47:44;;;;;;;30.30;4.67;;;;;;;;;;5011021;28;20808;-82
2021/05/04 13:50:12;;;;;;;25.77;3.33;;;;;;;;;;5012844;28;20424;-80
2021/05/04 13:52:39;;;;;;;35.10;4.40;;;;;;;;;;4995784;28;20446;-83
2021/05/04 13:55:08;;;;;;;19.70;3.00;;;;;;;;;;5012640;28;20422;-81
2021/05/04 13:57:35;;;;;;;27.93;4.60;;;;;;;;;;4990014;28;20963;-82
2021/05/04 14:00:05;;;;;;;18.77;3.33;;;;;;;;;;5007549;28;20570;-82
2021/05/04 14:02:39;;;;;;;13.40;2.90;;;;;;;;;;5010681;28;20447;-79
2021/05/04 14:05:22;;;;;;;16.67;2.53;;;;;;;;;;5010398;28;20445;-80
2021/05/04 14:08:17;;;;;;;15.33;3.00;;;;;;;;;;4995314;28;20474;-80
2021/05/04 14:26:53;;;;;;;8.87;2.50;;;;;;;;;;5008683;28;20811;-81
2021/05/04 14:29:20;;;;;;;6.67;2.20;;;;;;;;;;5009720;28;20853;-83
2021/05/04 14:31:47;;;;;;;6.60;2.20;;;;;;;;;;4992970;28;20454;-80
2021/05/04 14:34:14;;;;;;;7.57;1.87;;;;;;;;;;5009318;28;20431;-80
2021/05/04 14:36:57;;;;;;;6.43;1.83;;;;;;;;;;5005800;28;20439;-79
2021/05/04 14:39:31;;;;;;;5.03;1.90;;;;;;;;;;5006839;28;20529;-79
2021/05/04 14:55:47;;;;;;;8.47;1.73;;;;;;;;;;5146847;27;20431;-79
2021/05/04 14:58:31;;;;;;;5.37;2.23;;;;;;;;;;5147201;27;20463;-80
2021/05/04 15:01:03;;;;;;;11.63;2.07;;;;;;;;;;5136508;27;20842;-79
2021/05/04 15:03:30;;;;;;;3.13;1.50;;;;;;;;;;5153228;27;20990;-80
2021/05/04 15:05:59;;;;;;;4.50;2.27;;;;;;;;;;5153001;27;20786;-80
2021/05/04 15:08:25;;;;;;;4.10;1.40;;;;;;;;;;5147014;27;20488;-79
2021/05/04 15:10:52;;;;;;;11.00;1.73;;;;;;;;;;5146042;27;20446;-79
2021/05/04 15:13:20;;;;;;;11.23;2.13;;;;;;;;;;5132936;27;20460;-80
2021/05/04 15:15:59;;;;;;;15.60;2.33;;;;;;;;;;5128029;27;21429;-78
2021/05/04 15:21:28;;;;;;;7.53;2.10;;;;;;;;;;5128493;27;20774;-80
2021/05/04 15:23:55;;;;;;;7.50;2.40;;;;;;;;;;5128711;27;20499;-79
2021/05/04 15:26:21;;;;;;;6.97;2.07;;;;;;;;;;5154133;27;20902;-80
2021/05/04 15:28:48;;;;;;;8.93;2.40;;;;;;;;;;5159143;27;20476;-80
2021/05/04 15:31:15;;;;;;;4.50;1.77;;;;;;;;;;5168436;27;20435;-81
2021/05/04 15:33:42;;;;;;;7.27;2.33;;;;;;;;;;5158143;27;20793;-79
2021/05/04 15:36:15;;;;;;;8.60;1.90;;;;;;;;;;5147909;27;20467;-81
2021/05/04 15:38:42;;;;;;;8.00;1.80;;;;;;;;;;5133185;27;20909;-82
2021/05/04 15:41:09;;;;;;;8.93;2.23;;;;;;;;;;5128443;27;20768;-81
2021/05/04 15:43:36;;;;;;;11.30;2.70;;;;;;;;;;5129585;27;20434;-82
2021/05/04 15:46:13;;;;;;;4.53;2.00;;;;;;;;;;5128377;27;20449;-81
2021/05/04 15:48:46;;;;;;;11.23;2.50;;;;;;;;;;5148403;27;20519;-79